Miers Lake, Alaska
Current Conditions -  °F | °C
As of 7:34 AM on Saturday 22 Nov 2014 (Local Time) from PAOR Reporting Station
Light Snow Light Snow  
Wind Chill:   Ceiling: 4000
Heat Index:   Visibility: 4mi
Dew Point:   Wind: 0mph
Humidity: 87%   Direction: NA
Pressure: 29.26"   Gusts: NA
Location:  62.4028°N, 143.162°W
Report Text: PAOR 221634Z 00000KT 4SM -SN BKN040 OVC047 M14/M16 A2926 RMK AO2 T11391156
Loading
Personal Weather Stations






























Interactive Weather Map New forecast layout! Learn more

10-Day Weather Forecast

Advertisements
Track Severe Weather on mobile